createdAt,value
2023-05-20T11:37:01.717Z,102515.88
2023-05-20T11:39:31.966Z,102508.91
2023-05-20T11:41:59.252Z,102505.19
2023-05-20T11:44:26.564Z,102502.78
2023-05-20T11:47:00.667Z,102501.53
2023-05-20T11:49:28.267Z,102505.84
2023-05-20T11:51:55.165Z,102502.22
2023-05-20T11:54:24.425Z,102510.78
2023-05-20T11:56:51.838Z,102496.84
2023-05-20T11:59:18.723Z,102496.03
2023-05-20T12:01:45.952Z,102493.38
2023-05-20T12:04:14.938Z,102483.31
2023-05-20T12:06:43.112Z,102484.34
2023-05-20T12:09:11.226Z,102478.66
2023-05-20T12:11:41.263Z,102483.00
2023-05-20T12:14:09.215Z,102476.41
2023-05-20T12:16:37.146Z,102476.50
2023-05-20T12:19:04.759Z,102469.50
2023-05-20T12:21:32.338Z,102466.66
2023-05-20T12:23:59.935Z,102457.41
2023-05-20T12:26:28.678Z,102462.13
2023-05-20T12:28:56.569Z,102457.88
2023-05-20T12:31:23.893Z,102459.91
2023-05-20T12:33:50.946Z,102453.78
2023-05-20T12:36:17.905Z,102442.56
2023-05-20T12:38:44.757Z,102437.25
2023-05-20T12:41:12.096Z,102438.97
2023-05-20T12:43:39.799Z,102443.34
2023-05-20T12:46:06.911Z,102439.56
2023-05-20T12:48:33.883Z,102433.84
2023-05-20T12:51:00.867Z,102439.06
2023-05-20T12:53:27.883Z,102431.81
2023-05-20T12:55:54.750Z,102425.06
2023-05-20T12:58:21.697Z,102429.28
2023-05-20T13:00:48.715Z,102421.63
2023-05-20T13:03:15.775Z,102417.84
2023-05-20T13:05:42.686Z,102421.59
2023-05-20T13:08:11.055Z,102420.50
2023-05-20T13:10:38.239Z,102422.97
2023-05-20T13:13:05.274Z,102418.88
2023-05-20T13:15:33.677Z,102415.78
2023-05-20T13:18:01.776Z,102412.66
2023-05-20T13:20:30.073Z,102400.88
2023-05-20T13:22:57.064Z,102415.66
2023-05-20T13:25:24.028Z,102402.16
2023-05-20T13:27:51.114Z,102401.13
2023-05-20T13:30:18.072Z,102399.50
2023-05-20T13:32:45.173Z,102400.13
2023-05-20T13:35:13.312Z,102403.63
2023-05-20T13:37:40.210Z,102397.88
2023-05-20T13:40:07.768Z,102399.16
2023-05-20T13:42:34.731Z,102398.44
2023-05-20T13:45:01.631Z,102394.16
2023-05-20T13:47:28.707Z,102391.41
2023-05-20T13:49:55.865Z,102386.44
2023-05-20T13:52:22.959Z,102381.78
2023-05-20T13:54:49.943Z,102383.91
2023-05-20T13:57:16.833Z,102376.78
2023-05-20T13:59:43.779Z,102378.63
2023-05-20T14:02:11.291Z,102366.66
2023-05-20T14:04:40.657Z,102363.25
2023-05-20T14:07:09.578Z,102374.28
2023-05-20T14:09:37.015Z,102374.13
2023-05-20T14:12:04.733Z,102366.13
2023-05-20T14:14:31.877Z,102382.19
2023-05-20T14:16:58.767Z,102367.13
2023-05-20T14:19:27.222Z,102371.31
2023-05-20T14:21:54.438Z,102363.72
2023-05-20T14:24:23.032Z,102364.34
2023-05-20T14:26:50.739Z,102363.88
2023-05-20T14:29:17.754Z,102358.47
2023-05-20T14:31:45.011Z,102357.03
2023-05-20T14:34:12.264Z,102363.06
2023-05-20T14:36:39.568Z,102366.75
2023-05-20T14:39:06.566Z,102361.13
2023-05-20T14:41:33.510Z,102347.25
2023-05-20T14:44:00.364Z,102351.53
2023-05-20T14:46:27.377Z,102358.69
2023-05-20T14:48:54.417Z,102352.19
2023-05-20T14:51:21.337Z,102355.53
2023-05-20T14:53:48.157Z,102351.00
2023-05-20T14:56:15.032Z,102353.50
2023-05-20T14:58:42.233Z,102341.13
2023-05-20T15:01:09.379Z,102353.66
2023-05-20T15:03:36.389Z,102342.66
2023-05-20T15:06:03.594Z,102332.25
2023-05-20T15:08:30.468Z,102340.53
2023-05-20T15:10:57.541Z,102347.22
2023-05-20T15:13:24.397Z,102335.31
2023-05-20T15:15:51.609Z,102334.88
2023-05-20T15:18:18.583Z,102333.13
2023-05-20T15:20:45.608Z,102346.25
2023-05-20T15:23:12.544Z,102352.78
2023-05-20T15:25:39.476Z,102351.13
2023-05-20T15:28:06.336Z,102344.78
2023-05-20T15:30:33.541Z,102337.94
2023-05-20T15:33:00.515Z,102347.84
2023-05-20T15:35:27.497Z,102345.13
2023-05-20T15:37:54.745Z,102337.47
2023-05-20T15:40:22.034Z,102340.97
2023-05-20T15:42:49.006Z,102338.97
2023-05-20T15:45:16.085Z,102331.25
2023-05-20T15:47:43.589Z,102329.25
2023-05-20T15:50:11.659Z,102331.88
2023-05-20T15:52:38.913Z,102315.72
2023-05-20T15:55:06.731Z,102311.09
2023-05-20T15:57:34.472Z,102310.59
2023-05-20T16:00:01.752Z,102311.34
2023-05-20T16:02:29.006Z,102311.63
2023-05-20T16:04:56.071Z,102312.16
2023-05-20T16:07:22.921Z,102310.06
2023-05-20T16:09:49.814Z,102311.03
2023-05-20T16:12:17.211Z,102310.28
2023-05-20T16:14:44.933Z,102305.47
2023-05-20T16:17:12.638Z,102306.91
2023-05-20T16:19:39.595Z,102294.81
2023-05-20T16:22:06.547Z,102304.28
2023-05-20T16:24:33.525Z,102292.53
2023-05-20T16:27:00.615Z,102292.94
2023-05-20T16:29:27.702Z,102297.69
2023-05-20T16:31:54.832Z,102290.44
2023-05-20T16:34:21.831Z,102289.72
2023-05-20T16:36:48.818Z,102279.28
2023-05-20T16:39:16.228Z,102284.13
2023-05-20T16:41:43.482Z,102281.66
2023-05-20T16:44:10.856Z,102278.44
2023-05-20T16:46:37.724Z,102284.31
2023-05-20T16:49:04.717Z,102277.19
2023-05-20T16:51:31.633Z,102279.53
2023-05-20T16:53:58.607Z,102284.91
2023-05-20T16:56:26.358Z,102286.69
2023-05-20T16:58:53.456Z,102289.75
2023-05-20T17:01:21.909Z,102286.19
2023-05-20T17:03:49.181Z,102291.06
2023-05-20T17:06:16.150Z,102286.09
2023-05-20T17:08:42.996Z,102289.78
2023-05-20T17:11:10.081Z,102284.63
2023-05-20T17:13:37.036Z,102289.09
2023-05-20T17:16:04.412Z,102290.03
2023-05-20T17:18:31.621Z,102291.81
2023-05-20T17:20:58.592Z,102291.41
2023-05-20T17:23:25.677Z,102296.31
2023-05-20T17:25:52.556Z,102297.72
2023-05-20T17:28:19.404Z,102302.66
2023-05-20T17:30:46.819Z,102296.19
2023-05-20T17:33:13.878Z,102296.53
2023-05-20T17:35:41.062Z,102289.09
2023-05-20T17:38:07.904Z,102295.13
2023-05-20T17:40:35.002Z,102305.69
2023-05-20T17:43:02.091Z,102299.16
2023-05-20T17:45:29.000Z,102297.06
2023-05-20T17:47:55.846Z,102294.84
2023-05-20T17:50:22.863Z,102293.41
2023-05-20T17:52:49.748Z,102295.94
2023-05-20T17:55:18.656Z,102288.78
2023-05-20T17:57:45.571Z,102293.25
2023-05-20T18:00:13.284Z,102296.28
2023-05-20T18:02:46.385Z,102309.38
2023-05-20T18:05:13.886Z,102299.66
2023-05-20T18:07:41.095Z,102304.59
2023-05-20T18:10:08.590Z,102307.50
2023-05-20T18:12:35.633Z,102310.53
2023-05-20T18:15:03.745Z,102305.91
2023-05-20T18:17:30.725Z,102309.06
2023-05-20T18:19:57.679Z,102309.41
2023-05-20T18:22:24.560Z,102305.25
2023-05-20T18:24:51.482Z,102311.34
2023-05-20T18:27:18.370Z,102315.78
2023-05-20T18:29:45.243Z,102314.06
2023-05-20T18:32:12.163Z,102316.91
2023-05-20T18:34:39.272Z,102311.63
2023-05-20T18:37:06.411Z,102309.88
2023-05-20T18:39:33.264Z,102307.31
2023-05-20T18:42:00.185Z,102309.25
2023-05-20T18:44:27.177Z,102314.00
2023-05-20T18:46:54.048Z,102304.28
2023-05-20T18:49:20.954Z,102308.28
2023-05-20T18:51:47.834Z,102307.16
2023-05-20T18:54:14.711Z,102313.03
2023-05-20T18:56:41.772Z,102311.59
2023-05-20T18:59:08.696Z,102310.66
2023-05-20T19:01:36.679Z,102319.56
2023-05-20T19:04:03.851Z,102319.72
2023-05-20T19:06:32.072Z,102317.78
2023-05-20T19:08:59.116Z,102324.16
2023-05-20T19:11:26.130Z,102323.31
2023-05-20T19:13:52.991Z,102316.28
2023-05-20T19:16:20.244Z,102314.19
2023-05-20T19:18:47.237Z,102312.41
2023-05-20T19:21:14.174Z,102315.75
2023-05-20T19:23:41.235Z,102316.41
2023-05-20T19:26:08.489Z,102319.44
2023-05-20T19:28:35.662Z,102326.72
2023-05-20T19:31:02.579Z,102326.09
2023-05-20T19:33:29.524Z,102332.47
2023-05-20T19:35:57.976Z,102330.03
2023-05-20T19:38:25.114Z,102326.38
2023-05-20T19:40:51.974Z,102321.88
2023-05-20T19:43:18.780Z,102324.69
2023-05-20T19:45:45.650Z,102327.41
2023-05-20T19:48:12.673Z,102320.25
2023-05-20T19:50:39.519Z,102325.16
2023-05-20T19:53:07.755Z,102329.28
2023-05-20T19:55:38.885Z,102344.50
2023-05-20T19:58:06.296Z,102339.22
2023-05-20T20:00:33.287Z,102326.41
2023-05-20T20:03:00.154Z,102336.44
2023-05-20T20:05:27.245Z,102337.66
2023-05-20T20:07:54.330Z,102339.25
2023-05-20T20:10:21.447Z,102337.66
2023-05-20T20:12:48.934Z,102331.16
2023-05-20T20:15:16.171Z,102332.47
2023-05-20T20:17:52.060Z,102334.84
2023-05-20T20:20:19.558Z,102339.88
2023-05-20T20:22:46.627Z,102338.97
2023-05-20T20:25:16.646Z,102337.50
2023-05-20T20:27:44.264Z,102341.63
2023-05-20T20:30:15.503Z,102337.59
2023-05-20T20:32:42.947Z,102333.78
2023-05-20T20:35:10.037Z,102333.78
2023-05-20T20:37:38.530Z,102323.91
2023-05-20T20:40:08.223Z,102323.72
2023-05-20T20:42:35.157Z,102321.22
2023-05-20T20:45:02.662Z,102317.22
2023-05-20T20:47:29.800Z,102318.50
2023-05-20T20:49:57.062Z,102313.72
2023-05-20T20:52:24.239Z,102307.63
2023-05-20T20:54:51.192Z,102313.94
2023-05-20T20:57:18.037Z,102317.44
2023-05-20T20:59:48.248Z,102309.13
2023-05-20T21:02:15.266Z,102310.44
2023-05-20T21:04:42.922Z,102306.53
2023-05-20T21:07:09.980Z,102305.25
2023-05-20T21:09:36.907Z,102299.03
2023-05-20T21:12:06.941Z,102306.34
2023-05-20T21:14:33.911Z,102304.75
2023-05-20T21:17:00.931Z,102308.56
2023-05-20T21:21:55.656Z,102303.44
2023-05-20T21:24:22.459Z,102306.47
2023-05-20T21:26:49.332Z,102302.16
2023-05-20T21:29:16.404Z,102302.66
2023-05-20T21:31:43.283Z,102305.06
2023-05-20T21:34:10.110Z,102300.56
2023-05-20T21:36:37.198Z,102301.69
2023-05-20T21:39:04.154Z,102299.78
2023-05-20T21:41:31.028Z,102301.38
2023-05-20T21:43:58.074Z,102295.25
2023-05-20T21:46:25.005Z,102301.78
2023-05-20T21:48:51.950Z,102293.97
2023-05-20T21:51:18.819Z,102287.28
2023-05-20T21:53:46.061Z,102284.59
2023-05-20T21:56:13.003Z,102281.41
2023-05-20T21:58:41.861Z,102282.47
2023-05-20T22:01:12.232Z,102286.19
2023-05-20T22:03:40.306Z,102283.91
2023-05-20T22:06:07.528Z,102284.69
2023-05-20T22:08:34.436Z,102285.81
2023-05-20T22:11:05.623Z,102283.09
2023-05-20T22:13:33.877Z,102280.09
2023-05-20T22:16:02.228Z,102280.09
2023-05-20T22:18:29.578Z,102271.66
2023-05-20T22:21:00.636Z,102273.88
2023-05-20T22:23:29.140Z,102276.41
2023-05-20T22:25:56.289Z,102271.50
2023-05-20T22:28:23.930Z,102276.72
2023-05-20T22:30:51.760Z,102273.19
2023-05-20T22:33:18.836Z,102270.50
2023-05-20T22:35:45.803Z,102270.50
2023-05-20T22:38:12.627Z,102269.69
2023-05-20T22:40:39.648Z,102264.81
2023-05-20T22:43:06.677Z,102252.88
2023-05-20T22:45:33.689Z,102247.59
2023-05-20T22:48:00.648Z,102255.03
2023-05-20T22:50:27.958Z,102244.88
2023-05-20T22:52:55.094Z,102242.81
2023-05-20T22:55:23.442Z,102244.81
2023-05-20T22:57:50.295Z,102241.63
2023-05-20T23:00:18.341Z,102229.00
2023-05-20T23:02:50.107Z,102227.72
2023-05-20T23:05:17.557Z,102228.22
2023-05-20T23:07:45.140Z,102225.34
2023-05-20T23:10:12.164Z,102217.03
2023-05-20T23:12:39.196Z,102215.63
2023-05-20T23:15:06.929Z,102208.91
2023-05-20T23:17:33.791Z,102202.94
2023-05-20T23:20:00.846Z,102207.03
2023-05-20T23:22:27.651Z,102203.25
2023-05-20T23:24:54.633Z,102201.94
2023-05-20T23:27:21.470Z,102208.25
2023-05-20T23:29:48.441Z,102202.84
2023-05-20T23:32:15.293Z,102200.63
2023-05-20T23:34:43.703Z,102200.63
2023-05-20T23:37:10.683Z,102202.16
2023-05-20T23:39:37.584Z,102200.88
2023-05-20T23:42:05.657Z,102198.19
2023-05-20T23:44:32.495Z,102200.38
2023-05-20T23:46:59.435Z,102200.06
2023-05-20T23:49:27.336Z,102193.97
2023-05-20T23:51:54.163Z,102192.28
2023-05-20T23:54:21.214Z,102185.88
2023-05-20T23:56:48.121Z,102194.09
2023-05-20T23:59:15.042Z,102195.72
